createdAt,value
2018-06-02T00:02:03.583Z,10.53
2018-06-02T00:04:31.049Z,10.40
2018-06-02T00:06:58.521Z,10.80
2018-06-02T00:09:25.985Z,11.23
2018-06-02T00:11:53.459Z,9.70
2018-06-02T00:14:20.924Z,10.17
2018-06-02T00:16:49.181Z,10.33
2018-06-02T00:19:18.168Z,9.87
2018-06-02T00:21:45.625Z,10.17
2018-06-02T00:24:13.086Z,9.70
2018-06-02T00:26:40.571Z,10.80
2018-06-02T00:29:08.041Z,10.20
2018-06-02T00:31:36.269Z,9.50
2018-06-02T00:34:03.749Z,9.60
2018-06-02T00:36:31.196Z,10.00
2018-06-02T00:38:58.675Z,10.37
2018-06-02T00:41:26.137Z,9.23
2018-06-02T00:43:53.605Z,10.00
2018-06-02T00:46:21.821Z,9.47
2018-06-02T00:48:49.305Z,10.30
2018-06-02T00:51:16.760Z,9.90
2018-06-02T00:53:44.216Z,9.37
2018-06-02T00:56:11.701Z,9.63
2018-06-02T00:58:39.158Z,8.83
2018-06-02T01:01:06.628Z,9.57
2018-06-02T01:03:34.861Z,8.87
2018-06-02T01:06:02.321Z,9.20
2018-06-02T01:08:29.785Z,9.40
2018-06-02T01:10:57.252Z,9.70
2018-06-02T01:13:24.720Z,10.17
2018-06-02T01:15:52.176Z,9.10
2018-06-02T01:18:20.408Z,9.33
2018-06-02T01:20:47.945Z,9.07
2018-06-02T01:23:15.345Z,9.60
2018-06-02T01:25:42.807Z,9.90
2018-06-02T01:28:10.280Z,9.60
2018-06-02T01:30:38.512Z,9.80
2018-06-02T01:33:05.982Z,10.00
2018-06-02T01:35:33.453Z,10.00
2018-06-02T01:38:01.672Z,9.60
2018-06-02T01:40:29.900Z,9.40
2018-06-02T01:42:57.371Z,9.83
2018-06-02T01:45:24.860Z,9.97
2018-06-02T01:47:53.088Z,10.53
2018-06-02T01:50:20.551Z,10.23
2018-06-02T01:52:48.004Z,10.00
2018-06-02T01:55:15.476Z,10.43
2018-06-02T01:57:42.944Z,10.10
2018-06-02T02:00:11.172Z,9.73
2018-06-02T02:02:38.636Z,10.70
2018-06-02T02:05:06.108Z,10.43
2018-06-02T02:07:33.568Z,10.23
2018-06-02T02:10:01.043Z,10.33
2018-06-02T02:12:28.488Z,9.50
2018-06-02T02:14:55.948Z,10.63
2018-06-02T02:17:24.167Z,9.93
2018-06-02T02:19:52.404Z,10.77
2018-06-02T02:22:19.876Z,10.70
2018-06-02T02:24:47.355Z,9.90
2018-06-02T02:27:15.580Z,10.40
2018-06-02T02:29:43.062Z,10.23
2018-06-02T02:32:10.516Z,10.33
2018-06-02T02:34:37.987Z,10.20
2018-06-02T02:37:05.466Z,10.60
2018-06-02T02:39:33.688Z,10.37
2018-06-02T02:42:01.172Z,10.50
2018-06-02T02:44:28.625Z,9.67
2018-06-02T02:46:56.088Z,10.30
2018-06-02T02:49:23.541Z,10.17
2018-06-02T02:51:51.024Z,10.40
2018-06-02T02:54:19.248Z,9.97
2018-06-02T02:56:46.720Z,9.70
2018-06-02T02:59:14.188Z,10.53
2018-06-02T03:01:41.673Z,10.63
2018-06-02T03:04:09.901Z,10.47
2018-06-02T03:06:37.385Z,10.67
2018-06-02T03:09:04.864Z,11.60
2018-06-02T03:11:33.108Z,10.70
2018-06-02T03:14:00.577Z,10.63
2018-06-02T03:16:28.803Z,10.53
2018-06-02T03:18:56.274Z,10.20
2018-06-02T03:21:24.501Z,10.30
2018-06-02T03:23:52.729Z,10.60
2018-06-02T03:26:20.199Z,10.47
2018-06-02T03:28:47.669Z,10.30
2018-06-02T03:31:15.136Z,10.80
2018-06-02T03:33:42.589Z,9.90
2018-06-02T03:36:10.067Z,10.37
2018-06-02T03:38:38.296Z,10.27
2018-06-02T03:41:05.755Z,9.77
2018-06-02T03:43:33.213Z,10.50
2018-06-02T03:46:00.677Z,10.60
2018-06-02T03:48:28.896Z,10.37
2018-06-02T03:50:56.360Z,10.30
2018-06-02T03:53:23.820Z,10.20
2018-06-02T03:55:51.280Z,10.20
2018-06-02T03:58:19.509Z,10.23
2018-06-02T04:00:46.981Z,10.37
2018-06-02T04:03:14.473Z,10.10
2018-06-02T04:05:42.716Z,10.23
2018-06-02T04:08:10.183Z,10.50
2018-06-02T04:10:38.422Z,10.50
2018-06-02T04:13:06.690Z,10.10
2018-06-02T04:15:34.153Z,10.17
2018-06-02T04:18:01.625Z,10.00
2018-06-02T04:20:29.077Z,9.60
2018-06-02T04:22:56.533Z,9.87
2018-06-02T04:25:24.748Z,9.40
2018-06-02T04:27:52.987Z,10.27
2018-06-02T04:30:20.447Z,10.10
2018-06-02T04:32:47.928Z,9.47
2018-06-02T04:35:16.171Z,9.63
2018-06-02T04:37:43.639Z,10.30
2018-06-02T04:40:11.380Z,10.33
2018-06-02T04:42:38.859Z,10.60
2018-06-02T04:45:06.441Z,10.23
2018-06-02T04:47:34.684Z,10.23
2018-06-02T04:50:02.154Z,9.50
2018-06-02T04:52:29.664Z,10.00
2018-06-02T04:54:57.108Z,10.03
2018-06-02T04:57:24.564Z,10.97
2018-06-02T04:59:52.019Z,10.40
2018-06-02T05:02:20.276Z,10.57
2018-06-02T05:04:47.744Z,10.40
2018-06-02T05:07:15.985Z,10.40
2018-06-02T05:09:43.452Z,10.70
2018-06-02T05:12:10.922Z,9.80
2018-06-02T05:14:39.900Z,10.80
2018-06-02T05:17:07.372Z,10.80
2018-06-02T05:19:34.833Z,10.60
2018-06-02T05:22:02.412Z,10.87
2018-06-02T05:24:29.869Z,10.60
2018-06-02T05:26:57.336Z,10.33
2018-06-02T05:29:24.792Z,11.13
2018-06-02T05:31:53.040Z,11.23
2018-06-02T05:34:22.020Z,10.50
2018-06-02T05:36:49.500Z,11.10
2018-06-02T05:39:16.979Z,11.50
2018-06-02T05:41:44.475Z,10.80
2018-06-02T05:44:12.693Z,10.70
2018-06-02T05:46:40.166Z,11.27
2018-06-02T05:49:08.439Z,11.47
2018-06-02T05:51:36.668Z,10.50
2018-06-02T05:54:04.892Z,11.37
2018-06-02T05:56:33.126Z,11.80
2018-06-02T05:59:00.588Z,11.00
2018-06-02T06:01:28.057Z,11.27
2018-06-02T06:03:55.508Z,10.70
2018-06-02T06:06:22.991Z,10.90
2018-06-02T06:08:50.442Z,10.30
2018-06-02T06:11:17.907Z,10.40
2018-06-02T06:13:46.136Z,10.67
2018-06-02T06:16:13.592Z,11.17
2018-06-02T06:18:41.068Z,10.07
2018-06-02T06:21:08.534Z,10.80
2018-06-02T06:23:35.991Z,9.77
2018-06-02T06:26:04.222Z,10.97
2018-06-02T06:28:31.696Z,10.73
2018-06-02T06:30:59.158Z,10.83
2018-06-02T06:33:27.394Z,10.03
2018-06-02T06:35:54.858Z,10.30
2018-06-02T06:38:22.321Z,10.70
2018-06-02T06:40:49.784Z,10.33
2018-06-02T06:43:18.025Z,9.83
2018-06-02T06:45:46.256Z,10.33
2018-06-02T06:48:13.724Z,9.80
2018-06-02T06:50:41.197Z,10.80
2018-06-02T06:53:08.668Z,9.63
2018-06-02T06:55:36.136Z,10.60
2018-06-02T06:58:04.379Z,10.40
2018-06-02T07:00:31.836Z,10.40
2018-06-02T07:02:59.301Z,11.10
2018-06-02T07:05:26.760Z,10.40
2018-06-02T07:07:54.216Z,9.53
2018-06-02T07:10:21.703Z,9.80
2018-06-02T07:12:49.929Z,11.23
2018-06-02T07:15:17.396Z,10.50
2018-06-02T07:17:44.916Z,10.60
2018-06-02T07:20:12.318Z,9.83
2018-06-02T07:22:40.541Z,10.13
2018-06-02T07:25:07.996Z,10.60
2018-06-02T07:27:36.264Z,10.30
2018-06-02T07:30:03.697Z,11.17
2018-06-02T07:32:31.159Z,11.10
2018-06-02T07:34:58.621Z,11.23
2018-06-02T07:37:26.099Z,11.37
2018-06-02T07:39:54.329Z,11.03
2018-06-02T07:42:21.800Z,10.33
2018-06-02T07:44:49.255Z,10.73
2018-06-02T07:47:16.740Z,10.37
2018-06-02T07:49:44.246Z,11.33
2018-06-02T07:52:11.680Z,11.00
2018-06-02T07:54:39.181Z,11.47
2018-06-02T07:57:07.404Z,9.90
2018-06-02T07:59:34.848Z,10.63
2018-06-02T08:02:03.092Z,11.07
2018-06-02T08:04:30.568Z,10.00
2018-06-02T08:06:58.043Z,10.20
2018-06-02T08:09:26.280Z,10.40
2018-06-02T08:11:53.747Z,10.20
2018-06-02T08:14:21.224Z,10.00
2018-06-02T08:16:48.682Z,10.20
2018-06-02T08:19:16.912Z,9.83
2018-06-02T08:21:44.368Z,10.00
2018-06-02T08:24:11.824Z,9.90
2018-06-02T08:26:39.310Z,9.70
2018-06-02T08:29:06.764Z,10.30
2018-06-02T08:31:35.744Z,10.23
2018-06-02T08:34:03.975Z,9.00
2018-06-02T08:36:32.184Z,9.40
2018-06-02T08:38:59.719Z,9.67
2018-06-02T08:41:27.113Z,9.63
2018-06-02T08:43:55.340Z,10.70
2018-06-02T08:46:23.572Z,9.97
2018-06-02T08:48:51.057Z,10.90
2018-06-02T08:51:18.511Z,9.77
2018-06-02T08:53:45.960Z,9.50
2018-06-02T08:56:14.927Z,9.67
2018-06-02T08:58:42.392Z,9.87
2018-06-02T09:01:09.846Z,9.87
2018-06-02T09:03:37.328Z,10.47
2018-06-02T09:06:06.302Z,9.90
2018-06-02T09:08:33.800Z,10.20
2018-06-02T09:11:01.296Z,9.23
2018-06-02T09:13:28.784Z,10.17
2018-06-02T09:15:56.243Z,9.27
2018-06-02T09:18:23.720Z,9.90
2018-06-02T09:20:51.173Z,11.07
2018-06-02T09:23:18.683Z,10.20
2018-06-02T09:25:46.152Z,10.30
2018-06-02T09:28:13.615Z,9.67
2018-06-02T09:30:41.110Z,10.47
2018-06-02T09:33:08.584Z,9.50
2018-06-02T09:35:36.048Z,10.07
2018-06-02T09:38:03.508Z,9.00
2018-06-02T09:40:31.000Z,10.70
2018-06-02T09:42:58.480Z,10.53
2018-06-02T09:45:25.955Z,11.03
2018-06-02T09:47:53.420Z,10.17
2018-06-02T09:50:20.880Z,10.30
2018-06-02T09:52:49.132Z,10.30
2018-06-02T09:55:16.611Z,10.57
2018-06-02T09:57:44.898Z,9.73
2018-06-02T10:00:12.339Z,10.77
2018-06-02T10:02:39.808Z,12.20
2018-06-02T10:05:08.048Z,10.30
2018-06-02T10:07:35.508Z,10.03
2018-06-02T10:10:02.989Z,11.13
2018-06-02T10:12:31.216Z,11.37
2018-06-02T10:14:58.688Z,11.07
2018-06-02T10:17:26.176Z,11.90
2018-06-02T10:19:55.176Z,10.83
2018-06-02T10:22:23.404Z,10.63
2018-06-02T10:24:52.521Z,10.07
2018-06-02T10:27:19.985Z,9.80
2018-06-02T10:29:47.464Z,9.73
2018-06-02T10:32:14.915Z,10.00
2018-06-02T10:34:42.377Z,9.50
2018-06-02T10:37:09.820Z,8.90
2018-06-02T10:39:37.290Z,9.20
2018-06-02T10:42:04.739Z,9.37
2018-06-02T10:44:32.258Z,9.13
2018-06-02T10:46:59.660Z,9.17
2018-06-02T10:49:27.172Z,8.50
2018-06-02T10:51:54.631Z,8.77
2018-06-02T10:54:22.096Z,8.80
2018-06-02T10:56:49.585Z,8.37
2018-06-02T10:59:17.051Z,8.10
2018-06-02T11:01:44.552Z,8.60
2018-06-02T11:04:11.992Z,7.73
2018-06-02T11:06:40.244Z,7.37
2018-06-02T11:09:07.723Z,7.63
2018-06-02T11:11:35.156Z,7.97
2018-06-02T11:14:02.618Z,6.50
2018-06-02T11:16:30.073Z,7.10
2018-06-02T11:18:57.536Z,5.97
2018-06-02T11:21:24.991Z,6.47
2018-06-02T11:23:54.084Z,5.70
2018-06-02T11:26:21.528Z,5.83
2018-06-02T11:28:48.996Z,5.60
2018-06-02T11:31:16.449Z,5.20
2018-06-02T11:33:44.684Z,5.30
2018-06-02T11:36:12.905Z,4.60
2018-06-02T11:38:40.381Z,4.63
2018-06-02T11:41:08.628Z,4.57
2018-06-02T11:43:37.588Z,4.47
2018-06-02T11:46:05.060Z,4.47
2018-06-02T11:48:32.520Z,4.37
2018-06-02T11:50:59.981Z,3.70
2018-06-02T11:53:28.193Z,4.20
2018-06-02T11:55:56.436Z,3.60
2018-06-02T11:58:23.921Z,3.67
2018-06-02T12:00:51.376Z,3.53
2018-06-02T12:03:18.820Z,3.17
2018-06-02T12:05:46.291Z,3.50
2018-06-02T12:08:13.746Z,3.37
2018-06-02T12:10:41.222Z,3.27
2018-06-02T12:13:09.456Z,3.30
2018-06-02T12:15:36.936Z,3.50
2018-06-02T12:18:05.160Z,3.10
2018-06-02T12:20:32.648Z,3.27
2018-06-02T12:23:00.097Z,3.10
2018-06-02T12:25:27.560Z,3.00
2018-06-02T12:27:55.020Z,2.93
2018-06-02T12:30:22.493Z,2.90
2018-06-02T12:32:49.943Z,2.87
2018-06-02T12:35:17.412Z,2.53
2018-06-02T12:37:44.864Z,2.83
2018-06-02T12:40:12.353Z,3.10
2018-06-02T12:42:40.551Z,2.80
2018-06-02T12:45:08.025Z,2.50
2018-06-02T12:47:35.591Z,2.23
2018-06-02T12:50:02.979Z,2.53
2018-06-02T12:52:30.437Z,2.50
2018-06-02T12:54:57.898Z,2.60
2018-06-02T12:57:26.135Z,2.60
2018-06-02T12:59:53.605Z,2.80
2018-06-02T13:02:21.087Z,2.77
2018-06-02T13:04:48.542Z,2.77
2018-06-02T13:07:16.024Z,2.57
2018-06-02T13:09:44.252Z,2.40
2018-06-02T13:12:11.703Z,2.70
2018-06-02T13:14:39.213Z,2.40
2018-06-02T13:17:07.439Z,2.60
2018-06-02T13:19:35.659Z,2.80
2018-06-02T13:22:03.897Z,2.60
2018-06-02T13:24:31.376Z,2.50
2018-06-02T13:26:58.833Z,2.90
2018-06-02T13:29:26.297Z,2.50
2018-06-02T13:31:53.749Z,2.70
2018-06-02T13:34:21.980Z,2.70
2018-06-02T13:36:49.445Z,2.80
2018-06-02T13:39:16.913Z,2.60
2018-06-02T13:41:44.388Z,2.70
2018-06-02T13:44:11.854Z,2.33
2018-06-02T13:46:39.314Z,2.70
2018-06-02T13:49:06.767Z,2.43
2018-06-02T13:51:35.004Z,2.50
2018-06-02T13:54:02.459Z,2.60
2018-06-02T13:56:29.969Z,2.50
2018-06-02T13:58:57.412Z,2.10
2018-06-02T14:01:24.872Z,2.50
2018-06-02T14:03:52.331Z,2.40
2018-06-02T14:06:20.203Z,2.27
2018-06-02T14:08:48.441Z,2.63
2018-06-02T14:11:15.911Z,2.40
2018-06-02T14:13:43.372Z,2.20
2018-06-02T14:16:10.844Z,2.20
2018-06-02T14:18:38.330Z,2.67
2018-06-02T14:21:05.766Z,5.50
2018-06-02T14:23:34.732Z,6.67
2018-06-02T14:26:02.223Z,6.63
2018-06-02T14:28:30.470Z,7.27
2018-06-02T14:30:57.996Z,7.40
2018-06-02T14:33:25.414Z,6.97
2018-06-02T14:35:52.932Z,5.27
2018-06-02T14:38:20.427Z,5.63
2018-06-02T14:40:47.903Z,6.67
2018-06-02T14:43:15.344Z,5.30
2018-06-02T14:45:43.571Z,5.30
2018-06-02T14:48:11.032Z,3.73
2018-06-02T14:50:38.526Z,6.80
2018-06-02T14:53:05.973Z,5.57
2018-06-02T14:55:33.445Z,4.97
2018-06-02T14:58:00.899Z,6.50
2018-06-02T15:00:28.373Z,5.60
2018-06-02T15:02:55.824Z,6.60
2018-06-02T15:05:23.289Z,6.67
2018-06-02T15:07:51.524Z,5.60
2018-06-02T15:10:18.976Z,6.83
2018-06-02T15:12:46.473Z,6.50
2018-06-02T15:15:13.921Z,7.60
2018-06-02T15:17:41.380Z,6.87
2018-06-02T15:20:08.834Z,6.50
2018-06-02T15:22:36.299Z,7.03
2018-06-02T15:25:03.763Z,7.43
2018-06-02T15:27:31.210Z,7.10
2018-06-02T15:29:58.672Z,7.63
2018-06-02T15:32:26.135Z,7.90
2018-06-02T15:34:54.368Z,7.90
2018-06-02T15:37:21.828Z,7.40
2018-06-02T15:39:49.301Z,7.60
2018-06-02T15:42:16.778Z,7.27
2018-06-02T15:44:44.239Z,6.43
2018-06-02T15:47:12.485Z,7.43
2018-06-02T15:49:39.930Z,8.00
2018-06-02T15:52:07.392Z,8.33
2018-06-02T15:54:34.980Z,7.77
2018-06-02T15:57:02.436Z,8.77
2018-06-02T15:59:29.893Z,9.27
2018-06-02T16:01:57.359Z,9.00
2018-06-02T16:04:24.824Z,9.70
2018-06-02T16:06:53.097Z,9.50
2018-06-02T16:09:20.560Z,9.47
2018-06-02T16:11:48.784Z,9.93
2018-06-02T16:14:16.256Z,11.20
2018-06-02T16:16:43.724Z,9.10
2018-06-02T16:19:11.196Z,11.70
2018-06-02T16:21:39.434Z,11.90
2018-06-02T16:24:06.896Z,13.20
2018-06-02T16:26:34.365Z,12.37
2018-06-02T16:29:01.854Z,16.40
2018-06-02T16:31:30.136Z,14.60
2018-06-02T16:33:58.368Z,15.50
2018-06-02T16:36:25.853Z,18.20
2018-06-02T16:38:53.306Z,17.57
2018-06-02T16:41:20.764Z,17.90
2018-06-02T16:43:48.292Z,17.97
2018-06-02T16:46:15.781Z,19.53
2018-06-02T16:48:43.235Z,17.90
2018-06-02T16:51:10.697Z,19.47
2018-06-02T16:53:38.155Z,18.80
2018-06-02T16:56:05.621Z,17.10
2018-06-02T16:58:33.852Z,15.10
2018-06-02T17:01:01.324Z,19.53
2018-06-02T17:03:29.548Z,21.17
2018-06-02T17:05:57.799Z,21.40
2018-06-02T17:08:25.252Z,20.40
2018-06-02T17:10:52.713Z,22.27
2018-06-02T17:13:20.176Z,21.83
2018-06-02T17:15:47.631Z,23.77
2018-06-02T17:18:15.136Z,22.40
2018-06-02T17:20:43.325Z,23.00
2018-06-02T17:23:10.796Z,23.90
2018-06-02T17:25:38.272Z,23.80
2018-06-02T17:28:05.728Z,21.30
2018-06-02T17:30:33.188Z,23.07
2018-06-02T17:33:00.640Z,22.30
2018-06-02T17:35:28.115Z,21.13
2018-06-02T17:37:56.353Z,22.60
2018-06-02T17:40:23.820Z,18.73
2018-06-02T17:42:51.288Z,22.03
2018-06-02T17:45:18.751Z,21.60
2018-06-02T17:47:46.228Z,22.40
2018-06-02T17:50:13.701Z,24.30
2018-06-02T17:52:41.934Z,22.30
2018-06-02T17:55:09.381Z,23.70
2018-06-02T17:57:36.845Z,22.17
2018-06-02T18:00:04.327Z,21.67
2018-06-02T18:02:31.806Z,23.87
2018-06-02T18:05:00.040Z,22.10
2018-06-02T18:07:27.500Z,24.40
2018-06-02T18:09:54.973Z,20.93
2018-06-02T18:12:23.944Z,21.23
2018-06-02T18:14:51.412Z,20.93
2018-06-02T18:17:18.871Z,19.37
2018-06-02T18:19:46.360Z,20.33
2018-06-02T18:22:14.716Z,21.40
2018-06-02T18:24:42.215Z,20.80
2018-06-02T18:27:10.432Z,19.63
2018-06-02T18:29:37.909Z,21.57
2018-06-02T18:32:05.364Z,21.10
2018-06-02T18:34:32.867Z,23.07
2018-06-02T18:37:00.338Z,21.50
2018-06-02T18:39:27.832Z,19.60
2018-06-02T18:41:55.288Z,24.57
2018-06-02T18:44:22.749Z,22.93
2018-06-02T18:46:50.213Z,26.73
2018-06-02T18:49:18.470Z,23.30
2018-06-02T18:51:45.954Z,22.87
2018-06-02T18:54:13.408Z,22.33
2018-06-02T18:56:40.863Z,23.43
2018-06-02T18:59:09.853Z,20.47
2018-06-02T19:01:37.323Z,22.10
2018-06-02T19:04:04.795Z,20.93
2018-06-02T19:06:33.102Z,21.03
2018-06-02T19:09:00.601Z,24.37
2018-06-02T19:11:28.833Z,24.07
2018-06-02T19:13:56.299Z,23.63
2018-06-02T19:16:23.765Z,23.57
2018-06-02T19:18:51.240Z,32.17
2018-06-02T19:21:18.697Z,30.30
2018-06-02T19:23:46.161Z,25.23
2018-06-02T19:26:13.620Z,26.00
2018-06-02T19:28:41.089Z,23.73
2018-06-02T19:31:08.543Z,25.40
2018-06-02T19:33:36.009Z,25.50
2018-06-02T19:36:03.470Z,29.60
2018-06-02T19:38:30.956Z,29.43
2018-06-02T19:40:58.511Z,30.77
2018-06-02T19:43:25.900Z,27.63
2018-06-02T19:45:53.380Z,27.73
2018-06-02T19:48:20.836Z,28.33
2018-06-02T19:50:48.296Z,29.90
2018-06-02T19:53:15.760Z,28.67
2018-06-02T19:55:43.997Z,30.20
2018-06-02T19:58:11.461Z,26.87
2018-06-02T20:00:38.945Z,30.40
2018-06-02T20:03:06.392Z,29.40
2018-06-02T20:05:33.861Z,31.07
2018-06-02T20:08:01.309Z,31.30
2018-06-02T20:10:28.882Z,29.87
2018-06-02T20:12:56.332Z,29.17
2018-06-02T20:15:23.788Z,27.67
2018-06-02T20:17:54.798Z,29.70
2018-06-02T20:20:22.273Z,30.50
2018-06-02T20:22:49.725Z,28.90
2018-06-02T20:25:17.204Z,26.50
2018-06-02T20:27:44.675Z,26.70
2018-06-02T20:30:12.916Z,26.43
2018-06-02T20:32:40.371Z,26.63
2018-06-02T20:35:07.853Z,27.43
2018-06-02T20:37:35.309Z,25.07
2018-06-02T20:40:02.771Z,28.33
2018-06-02T20:42:30.261Z,27.37
2018-06-02T20:44:58.468Z,26.37
2018-06-02T20:47:25.942Z,25.67
2018-06-02T20:49:53.417Z,25.33
2018-06-02T20:52:20.873Z,28.13
2018-06-02T20:54:48.356Z,25.30
2018-06-02T20:57:16.582Z,24.20
2018-06-02T20:59:44.064Z,27.43
2018-06-02T21:02:11.520Z,27.53
2018-06-02T21:04:38.989Z,28.00
2018-06-02T21:07:06.464Z,26.17
2018-06-02T21:09:33.929Z,29.27
2018-06-02T21:12:01.376Z,26.43
2018-06-02T21:14:29.604Z,24.77
2018-06-02T21:16:57.060Z,25.67
2018-06-02T21:19:25.588Z,27.60
2018-06-02T21:21:53.823Z,27.10
2018-06-02T21:24:21.292Z,23.40
2018-06-02T21:26:48.763Z,23.50
2018-06-02T21:29:16.227Z,27.90
2018-06-02T21:31:43.690Z,23.93
2018-06-02T21:34:11.146Z,26.70
2018-06-02T21:36:40.130Z,26.17
2018-06-02T21:39:07.600Z,27.80
2018-06-02T21:41:35.069Z,28.50
2018-06-02T21:44:03.320Z,27.93
2018-06-02T21:46:30.800Z,27.00
2018-06-02T21:48:58.252Z,27.40
2018-06-02T21:51:25.712Z,25.07
2018-06-02T21:53:53.173Z,26.87
2018-06-02T21:56:20.636Z,24.37
2018-06-02T21:58:48.867Z,25.10
2018-06-02T22:01:16.336Z,24.70
2018-06-02T22:03:43.797Z,24.27
2018-06-02T22:06:11.276Z,22.90
2018-06-02T22:08:38.743Z,24.27
2018-06-02T22:11:06.992Z,23.70
2018-06-02T22:13:34.444Z,23.57
2018-06-02T22:16:01.909Z,22.60
2018-06-02T22:18:29.407Z,22.20
2018-06-02T22:20:57.640Z,21.57
2018-06-02T22:23:25.092Z,20.83
2018-06-02T22:25:52.565Z,21.57
2018-06-02T22:28:20.029Z,19.70
2018-06-02T22:30:47.488Z,20.00
2018-06-02T22:33:14.947Z,20.00
2018-06-02T22:35:42.409Z,20.47
2018-06-02T22:38:10.638Z,19.73
2018-06-02T22:40:38.103Z,19.87
2018-06-02T22:43:05.568Z,20.30
2018-06-02T22:45:33.028Z,20.03
2018-06-02T22:48:00.486Z,19.30
2018-06-02T22:50:27.944Z,18.27
2018-06-02T22:52:55.400Z,18.10
2018-06-02T22:55:22.873Z,19.37
2018-06-02T22:57:51.917Z,18.77
2018-06-02T23:00:20.216Z,18.93
2018-06-02T23:02:47.688Z,18.83
2018-06-02T23:05:15.150Z,18.03
2018-06-02T23:07:42.621Z,18.07
2018-06-02T23:10:10.184Z,17.90
2018-06-02T23:12:37.700Z,18.33
2018-06-02T23:15:05.929Z,17.87
2018-06-02T23:17:34.161Z,17.30
2018-06-02T23:20:01.631Z,17.97
2018-06-02T23:22:38.808Z,17.80
2018-06-02T23:25:06.278Z,17.60
2018-06-02T23:27:33.732Z,17.90
2018-06-02T23:30:01.189Z,17.67
2018-06-02T23:32:29.423Z,16.87
2018-06-02T23:34:57.640Z,16.37
2018-06-02T23:37:25.116Z,18.27
2018-06-02T23:39:52.571Z,17.73
2018-06-02T23:42:20.054Z,17.57
2018-06-02T23:44:48.283Z,17.50
2018-06-02T23:47:15.752Z,16.97
2018-06-02T23:49:43.207Z,16.70
2018-06-02T23:52:10.689Z,16.10
2018-06-02T23:54:38.132Z,16.13
2018-06-02T23:57:05.592Z,17.40
2018-06-02T23:59:33.064Z,16.90
